sensor_id;sensor_type;location;lat;lon;timestamp;pressure;altitude;pressure_sealevel;temperature;humidity
73564;BME280;61834;50.196;6.454;2022-07-29T00:00:56;96333.44;;;21.83;49.60
73564;BME280;61834;50.196;6.454;2022-07-29T00:03:22;96324.31;;;21.83;49.89
73564;BME280;61834;50.196;6.454;2022-07-29T00:05:47;96322.00;;;21.81;49.87
73564;BME280;61834;50.196;6.454;2022-07-29T00:08:13;96328.31;;;21.82;49.93
73564;BME280;61834;50.196;6.454;2022-07-29T00:10:38;96325.84;;;21.84;49.96
73564;BME280;61834;50.196;6.454;2022-07-29T00:13:04;96323.22;;;21.80;49.66
73564;BME280;61834;50.196;6.454;2022-07-29T00:15:29;96324.78;;;21.81;49.67
73564;BME280;61834;50.196;6.454;2022-07-29T00:17:54;96322.00;;;21.81;49.56
73564;BME280;61834;50.196;6.454;2022-07-29T00:20:20;96316.09;;;21.79;49.75
73564;BME280;61834;50.196;6.454;2022-07-29T00:22:45;96321.66;;;21.79;49.72
73564;BME280;61834;50.196;6.454;2022-07-29T00:25:12;96319.66;;;21.80;49.81
73564;BME280;61834;50.196;6.454;2022-07-29T00:27:37;96317.63;;;21.80;49.88
73564;BME280;61834;50.196;6.454;2022-07-29T00:30:04;96317.63;;;21.80;49.54
73564;BME280;61834;50.196;6.454;2022-07-29T00:32:30;96313.63;;;21.81;49.78
73564;BME280;61834;50.196;6.454;2022-07-29T00:34:55;96304.47;;;21.81;49.63
73564;BME280;61834;50.196;6.454;2022-07-29T00:37:39;96311.31;;;21.80;49.94
73564;BME280;61834;50.196;6.454;2022-07-29T00:40:05;96306.94;;;21.79;49.89
73564;BME280;61834;50.196;6.454;2022-07-29T00:42:41;96302.94;;;21.80;50.03
73564;BME280;61834;50.196;6.454;2022-07-29T00:45:07;96295.78;;;21.79;49.54
73564;BME280;61834;50.196;6.454;2022-07-29T00:47:32;96294.25;;;21.78;50.08
73564;BME280;61834;50.196;6.454;2022-07-29T00:49:57;96295.00;;;21.78;49.70
73564;BME280;61834;50.196;6.454;2022-07-29T00:52:23;96292.22;;;21.78;49.64
73564;BME280;61834;50.196;6.454;2022-07-29T00:54:48;96284.31;;;21.77;49.74
73564;BME280;61834;50.196;6.454;2022-07-29T00:57:14;96288.31;;;21.76;49.72
73564;BME280;61834;50.196;6.454;2022-07-29T00:59:39;96284.75;;;21.75;49.87
73564;BME280;61834;50.196;6.454;2022-07-29T01:02:04;96285.13;;;21.77;49.98
73564;BME280;61834;50.196;6.454;2022-07-29T01:04:31;96273.59;;;21.75;49.71
73564;BME280;61834;50.196;6.454;2022-07-29T01:06:56;96272.06;;;21.74;49.93
73564;BME280;61834;50.196;6.454;2022-07-29T01:09:22;96272.53;;;21.73;49.60
73564;BME280;61834;50.196;6.454;2022-07-29T01:11:48;96272.06;;;21.74;49.87
73564;BME280;61834;50.196;6.454;2022-07-29T01:14:15;96269.28;;;21.74;49.81
73564;BME280;61834;50.196;6.454;2022-07-29T01:17:10;96264.50;;;21.75;49.73
73564;BME280;61834;50.196;6.454;2022-07-29T01:20:02;96257.34;;;21.74;49.60
73564;BME280;61834;50.196;6.454;2022-07-29T01:28:01;96263.38;;;21.72;49.91
73564;BME280;61834;50.196;6.454;2022-07-29T01:30:30;96272.53;;;21.73;49.98
73564;BME280;61834;50.196;6.454;2022-07-29T01:33:03;96270.50;;;21.73;49.58
73564;BME280;61834;50.196;6.454;2022-07-29T01:35:36;96265.38;;;21.72;49.82
73564;BME280;61834;50.196;6.454;2022-07-29T01:38:15;96266.63;;;21.71;49.83
73564;BME280;61834;50.196;6.454;2022-07-29T01:41:09;96268.63;;;21.70;49.69
73564;BME280;61834;50.196;6.454;2022-07-29T01:43:58;96268.63;;;21.70;49.94
73564;BME280;61834;50.196;6.454;2022-07-29T01:46:31;96255.50;;;21.71;49.96
73564;BME280;61834;50.196;6.454;2022-07-29T01:49:14;96265.38;;;21.72;49.67
73564;BME280;61834;50.196;6.454;2022-07-29T01:51:57;96264.63;;;21.71;49.76
73564;BME280;61834;50.196;6.454;2022-07-29T01:54:42;96254.72;;;21.70;49.58
73564;BME280;61834;50.196;6.454;2022-07-29T01:57:11;96259.94;;;21.68;49.81
73564;BME280;61834;50.196;6.454;2022-07-29T01:59:38;96252.38;;;21.69;49.74
73564;BME280;61834;50.196;6.454;2022-07-29T02:02:06;96252.84;;;21.67;49.69
73564;BME280;61834;50.196;6.454;2022-07-29T02:04:35;96239.38;;;21.66;50.16
73564;BME280;61834;50.196;6.454;2022-07-29T02:07:04;96254.09;;;21.66;49.89
73564;BME280;61834;50.196;6.454;2022-07-29T02:09:32;96248.06;;;21.68;50.04
73564;BME280;61834;50.196;6.454;2022-07-29T02:11:59;96238.13;;;21.67;49.66
73564;BME280;61834;50.196;6.454;2022-07-29T02:14:28;96254.09;;;21.66;50.08
73564;BME280;61834;50.196;6.454;2022-07-29T02:16:57;96251.31;;;21.66;49.84
73564;BME280;61834;50.196;6.454;2022-07-29T02:19:26;96252.84;;;21.67;50.01
73564;BME280;61834;50.196;6.454;2022-07-29T02:21:53;96253.31;;;21.66;50.04
73564;BME280;61834;50.196;6.454;2022-07-29T02:24:21;96255.31;;;21.65;49.91
73564;BME280;61834;50.196;6.454;2022-07-29T02:26:49;96240.16;;;21.66;49.66
73564;BME280;61834;50.196;6.454;2022-07-29T02:29:15;96241.84;;;21.64;50.11
73564;BME280;61834;50.196;6.454;2022-07-29T02:31:43;96244.16;;;21.65;49.73
73564;BME280;61834;50.196;6.454;2022-07-29T02:34:10;96250.50;;;21.66;50.03
73564;BME280;61834;50.196;6.454;2022-07-29T02:36:36;96252.97;;;21.64;50.03
73564;BME280;61834;50.196;6.454;2022-07-29T02:39:03;96244.16;;;21.65;49.83
73564;BME280;61834;50.196;6.454;2022-07-29T02:41:43;96245.72;;;21.66;49.68
73564;BME280;61834;50.196;6.454;2022-07-29T02:44:12;96246.94;;;21.65;50.07
73564;BME280;61834;50.196;6.454;2022-07-29T02:46:43;96250.19;;;21.64;49.89
73564;BME280;61834;50.196;6.454;2022-07-29T02:49:18;96250.97;;;21.64;50.06
73564;BME280;61834;50.196;6.454;2022-07-29T02:51:54;96250.19;;;21.64;49.87
73564;BME280;61834;50.196;6.454;2022-07-29T02:54:26;96247.41;;;21.64;49.87
73564;BME280;61834;50.196;6.454;2022-07-29T02:56:53;96231.94;;;21.63;49.95
73564;BME280;61834;50.196;6.454;2022-07-29T02:59:23;96240.28;;;21.63;49.92
73564;BME280;61834;50.196;6.454;2022-07-29T03:01:50;96243.84;;;21.63;49.83
73564;BME280;61834;50.196;6.454;2022-07-29T03:04:17;96250.19;;;21.64;49.89
73564;BME280;61834;50.196;6.454;2022-07-29T03:06:44;96244.28;;;21.62;49.72
73564;BME280;61834;50.196;6.454;2022-07-29T03:09:11;96243.53;;;21.61;50.21
73564;BME280;61834;50.196;6.454;2022-07-29T03:11:38;96238.72;;;21.62;50.04
73564;BME280;61834;50.196;6.454;2022-07-29T03:14:04;96237.97;;;21.61;50.30
73564;BME280;61834;50.196;6.454;2022-07-29T03:16:30;96233.94;;;21.62;50.22
73564;BME280;61834;50.196;6.454;2022-07-29T03:18:56;96237.97;;;21.61;50.09
73564;BME280;61834;50.196;6.454;2022-07-29T03:21:22;96237.19;;;21.61;49.96
73564;BME280;61834;50.196;6.454;2022-07-29T03:23:48;96228.03;;;21.60;50.01
73564;BME280;61834;50.196;6.454;2022-07-29T03:26:13;96222.00;;;21.62;50.26
73564;BME280;61834;50.196;6.454;2022-07-29T03:28:39;96226.03;;;21.61;50.26
73564;BME280;61834;50.196;6.454;2022-07-29T03:31:04;96232.41;;;21.61;49.93
73564;BME280;61834;50.196;6.454;2022-07-29T03:33:29;96225.25;;;21.60;50.11
73564;BME280;61834;50.196;6.454;2022-07-29T03:35:55;96231.63;;;21.61;50.12
73564;BME280;61834;50.196;6.454;2022-07-29T03:38:24;96222.94;;;21.59;50.32
73564;BME280;61834;50.196;6.454;2022-07-29T03:40:53;96218.16;;;21.59;50.03
73564;BME280;61834;50.196;6.454;2022-07-29T03:43:19;96229.63;;;21.61;50.06
73564;BME280;61834;50.196;6.454;2022-07-29T03:45:49;96224.94;;;21.58;50.32
73564;BME280;61834;50.196;6.454;2022-07-29T03:48:19;96222.16;;;21.58;49.99
73564;BME280;61834;50.196;6.454;2022-07-29T03:50:46;96224.19;;;21.58;50.38
73564;BME280;61834;50.196;6.454;2022-07-29T03:53:12;96234.06;;;21.59;50.19
73564;BME280;61834;50.196;6.454;2022-07-29T03:55:43;96238.09;;;21.58;50.35
73564;BME280;61834;50.196;6.454;2022-07-29T03:58:10;96234.53;;;21.57;50.18
73564;BME280;61834;50.196;6.454;2022-07-29T04:00:37;96246.47;;;21.58;50.24
73564;BME280;61834;50.196;6.454;2022-07-29T04:03:04;96249.25;;;21.58;50.44
73564;BME280;61834;50.196;6.454;2022-07-29T04:05:30;96234.06;;;21.59;50.17
73564;BME280;61834;50.196;6.454;2022-07-29T04:07:55;96233.28;;;21.58;50.02
73564;BME280;61834;50.196;6.454;2022-07-29T04:10:21;96242.09;;;21.57;50.16
73564;BME280;61834;50.196;6.454;2022-07-29T04:12:48;96233.47;;;21.55;50.40
73564;BME280;61834;50.196;6.454;2022-07-29T04:15:13;96239.03;;;21.55;50.36
73564;BME280;61834;50.196;6.454;2022-07-29T04:17:39;96240.91;;;21.58;50.31
73564;BME280;61834;50.196;6.454;2022-07-29T04:20:05;96245.34;;;21.55;50.25
73564;BME280;61834;50.196;6.454;2022-07-29T04:22:30;96244.13;;;21.56;50.18
73564;BME280;61834;50.196;6.454;2022-07-29T04:24:55;96247.81;;;21.53;50.34
73564;BME280;61834;50.196;6.454;2022-07-29T04:27:21;96250.16;;;21.55;50.45
73564;BME280;61834;50.196;6.454;2022-07-29T04:29:46;96257.75;;;21.54;50.45
73564;BME280;61834;50.196;6.454;2022-07-29T04:32:12;96261.00;;;21.53;50.40
73564;BME280;61834;50.196;6.454;2022-07-29T04:34:37;96268.88;;;21.54;50.29
73564;BME280;61834;50.196;6.454;2022-07-29T04:37:03;96270.44;;;21.55;50.43
73564;BME280;61834;50.196;6.454;2022-07-29T04:39:28;96271.66;;;21.54;50.43
73564;BME280;61834;50.196;6.454;2022-07-29T04:41:53;96271.66;;;21.54;50.16
73564;BME280;61834;50.196;6.454;2022-07-29T04:44:19;96266.09;;;21.54;50.36
73564;BME280;61834;50.196;6.454;2022-07-29T04:46:44;96272.88;;;21.53;50.48
73564;BME280;61834;50.196;6.454;2022-07-29T04:49:10;96274.47;;;21.54;49.99
73564;BME280;61834;50.196;6.454;2022-07-29T04:51:35;96277.25;;;21.54;50.38
73564;BME280;61834;50.196;6.454;2022-07-29T04:54:00;96275.69;;;21.53;50.25
73564;BME280;61834;50.196;6.454;2022-07-29T04:56:26;96279.25;;;21.54;50.08
73564;BME280;61834;50.196;6.454;2022-07-29T04:58:52;96276.47;;;21.54;50.29
73564;BME280;61834;50.196;6.454;2022-07-29T05:01:18;96291.63;;;21.53;49.96
73564;BME280;61834;50.196;6.454;2022-07-29T05:03:43;96289.59;;;21.53;50.04
73564;BME280;61834;50.196;6.454;2022-07-29T05:06:10;96288.38;;;21.54;50.20
73564;BME280;61834;50.196;6.454;2022-07-29T05:08:35;96293.97;;;21.54;50.27
73564;BME280;61834;50.196;6.454;2022-07-29T05:11:01;96296.75;;;21.54;50.25
73564;BME280;61834;50.196;6.454;2022-07-29T05:13:26;96296.75;;;21.54;50.08
73564;BME280;61834;50.196;6.454;2022-07-29T05:15:51;96294.75;;;21.55;50.22
73564;BME280;61834;50.196;6.454;2022-07-29T05:18:17;96305.44;;;21.56;50.04
73564;BME280;61834;50.196;6.454;2022-07-29T05:20:42;96312.22;;;21.55;50.34
73564;BME280;61834;50.196;6.454;2022-07-29T05:23:08;96307.09;;;21.54;50.48
73564;BME280;61834;50.196;6.454;2022-07-29T05:25:34;96301.53;;;21.54;50.28
73564;BME280;61834;50.196;6.454;2022-07-29T05:27:59;96301.53;;;21.54;50.27
73564;BME280;61834;50.196;6.454;2022-07-29T05:30:24;96303.53;;;21.53;50.08
73564;BME280;61834;50.196;6.454;2022-07-29T05:32:50;96298.75;;;21.54;50.10
73564;BME280;61834;50.196;6.454;2022-07-29T05:35:15;96302.31;;;21.54;50.24
73564;BME280;61834;50.196;6.454;2022-07-29T05:37:41;96302.31;;;21.54;50.45
73564;BME280;61834;50.196;6.454;2022-07-29T05:40:07;96305.09;;;21.54;50.05
73564;BME280;61834;50.196;6.454;2022-07-29T05:42:33;96302.63;;;21.56;50.32
73564;BME280;61834;50.196;6.454;2022-07-29T05:44:59;96314.25;;;21.55;50.05
73564;BME280;61834;50.196;6.454;2022-07-29T05:47:24;96309.88;;;21.54;50.19
73564;BME280;61834;50.196;6.454;2022-07-29T05:49:50;96304.31;;;21.54;50.29
73564;BME280;61834;50.196;6.454;2022-07-29T05:52:16;96305.88;;;21.55;50.47
73564;BME280;61834;50.196;6.454;2022-07-29T05:54:41;96303.09;;;21.55;50.39
73564;BME280;61834;50.196;6.454;2022-07-29T05:57:07;96306.31;;;21.53;50.42
73564;BME280;61834;50.196;6.454;2022-07-29T05:59:36;96308.97;;;21.57;50.33
73564;BME280;61834;50.196;6.454;2022-07-29T06:02:02;96302.63;;;21.56;50.30
73564;BME280;61834;50.196;6.454;2022-07-29T06:04:27;96311.75;;;21.57;50.44
73564;BME280;61834;50.196;6.454;2022-07-29T06:06:53;96312.53;;;21.57;50.36
73564;BME280;61834;50.196;6.454;2022-07-29T06:09:18;96307.44;;;21.56;50.13
73564;BME280;61834;50.196;6.454;2022-07-29T06:11:44;96313.31;;;21.58;50.56
73564;BME280;61834;50.196;6.454;2022-07-29T06:14:09;96317.78;;;21.55;50.18
73564;BME280;61834;50.196;6.454;2022-07-29T06:16:35;96316.88;;;21.58;50.15
73564;BME280;61834;50.196;6.454;2022-07-29T06:19:00;96318.44;;;21.59;50.44
73564;BME280;61834;50.196;6.454;2022-07-29T06:21:25;96316.44;;;21.60;50.21
73564;BME280;61834;50.196;6.454;2022-07-29T06:23:51;96317.19;;;21.60;50.07
73564;BME280;61834;50.196;6.454;2022-07-29T06:26:16;96318.75;;;21.61;50.40
73564;BME280;61834;50.196;6.454;2022-07-29T06:28:41;96319.06;;;21.63;50.26
73564;BME280;61834;50.196;6.454;2022-07-29T06:31:07;96322.63;;;21.64;49.87
73564;BME280;61834;50.196;6.454;2022-07-29T06:33:32;96315.06;;;21.64;49.85
73564;BME280;61834;50.196;6.454;2022-07-29T06:35:58;96316.59;;;21.65;50.27
73564;BME280;61834;50.196;6.454;2022-07-29T06:38:23;96314.59;;;21.66;49.96
73564;BME280;61834;50.196;6.454;2022-07-29T06:40:49;96321.41;;;21.65;50.01
73564;BME280;61834;50.196;6.454;2022-07-29T06:43:36;96315.84;;;21.65;50.26
73564;BME280;61834;50.196;6.454;2022-07-29T06:46:07;96320.63;;;21.64;50.03
73564;BME280;61834;50.196;6.454;2022-07-29T06:48:34;96320.63;;;21.64;50.29
73564;BME280;61834;50.196;6.454;2022-07-29T06:51:00;96324.97;;;21.65;50.23
73564;BME280;61834;50.196;6.454;2022-07-29T06:53:26;96322.16;;;21.65;49.95
73564;BME280;61834;50.196;6.454;2022-07-29T06:55:52;96330.84;;;21.67;50.13
73564;BME280;61834;50.196;6.454;2022-07-29T06:58:17;96326.53;;;21.66;50.12
73564;BME280;61834;50.196;6.454;2022-07-29T07:00:58;96329.31;;;21.66;50.00
73564;BME280;61834;50.196;6.454;2022-07-29T07:03:24;96327.28;;;21.67;50.23
73564;BME280;61834;50.196;6.454;2022-07-29T07:05:51;96335.66;;;21.67;50.22
73564;BME280;61834;50.196;6.454;2022-07-29T07:08:17;96331.66;;;21.68;50.08
73564;BME280;61834;50.196;6.454;2022-07-29T07:10:44;96335.19;;;21.68;50.09
73564;BME280;61834;50.196;6.454;2022-07-29T07:13:09;96345.91;;;21.70;50.15
73564;BME280;61834;50.196;6.454;2022-07-29T07:15:35;96340.00;;;21.68;49.83
73564;BME280;61834;50.196;6.454;2022-07-29T07:18:01;96340.00;;;21.68;50.26
73564;BME280;61834;50.196;6.454;2022-07-29T07:20:26;96347.13;;;21.69;50.16
73564;BME280;61834;50.196;6.454;2022-07-29T07:22:52;96344.31;;;21.69;49.95
73564;BME280;61834;50.196;6.454;2022-07-29T07:25:17;96343.53;;;21.68;50.04
73564;BME280;61834;50.196;6.454;2022-07-29T07:27:44;96354.25;;;21.70;49.94
73564;BME280;61834;50.196;6.454;2022-07-29T07:30:10;96342.31;;;21.69;49.92
73564;BME280;61834;50.196;6.454;2022-07-29T07:32:36;96347.44;;;21.71;50.27
73564;BME280;61834;50.196;6.454;2022-07-29T07:35:03;96354.25;;;21.70;50.03
73564;BME280;61834;50.196;6.454;2022-07-29T07:37:29;96345.13;;;21.69;49.72
73564;BME280;61834;50.196;6.454;2022-07-29T07:39:54;96334.75;;;21.70;50.20
73564;BME280;61834;50.196;6.454;2022-07-29T07:42:19;96334.28;;;21.71;49.84
73564;BME280;61834;50.196;6.454;2022-07-29T07:44:45;96339.88;;;21.71;49.78
73564;BME280;61834;50.196;6.454;2022-07-29T07:47:11;96335.06;;;21.72;49.88
73564;BME280;61834;50.196;6.454;2022-07-29T07:49:37;96336.63;;;21.73;49.84
73564;BME280;61834;50.196;6.454;2022-07-29T07:52:03;96326.69;;;21.72;49.88
73564;BME280;61834;50.196;6.454;2022-07-29T07:54:28;96335.84;;;21.72;50.04
73564;BME280;61834;50.196;6.454;2022-07-29T07:56:54;96335.06;;;21.72;49.85
73564;BME280;61834;50.196;6.454;2022-07-29T07:59:19;96336.63;;;21.73;50.09
73564;BME280;61834;50.196;6.454;2022-07-29T08:01:44;96333.84;;;21.73;50.01
73564;BME280;61834;50.196;6.454;2022-07-29T08:04:10;96336.63;;;21.73;50.01
73564;BME280;61834;50.196;6.454;2022-07-29T08:06:35;96334.59;;;21.73;50.13
73564;BME280;61834;50.196;6.454;2022-07-29T08:09:03;96334.16;;;21.75;49.94
73564;BME280;61834;50.196;6.454;2022-07-29T08:11:29;96334.91;;;21.75;49.79
73564;BME280;61834;50.196;6.454;2022-07-29T08:13:55;96334.91;;;21.75;50.13
73564;BME280;61834;50.196;6.454;2022-07-29T08:16:20;96334.16;;;21.75;50.17
73564;BME280;61834;50.196;6.454;2022-07-29T08:18:46;96325.34;;;21.76;49.77
73564;BME280;61834;50.196;6.454;2022-07-29T08:21:13;96340.06;;;21.77;49.77
73564;BME280;61834;50.196;6.454;2022-07-29T08:23:38;96332.91;;;21.76;49.79
73564;BME280;61834;50.196;6.454;2022-07-29T08:26:08;96339.28;;;21.76;49.79
73564;BME280;61834;50.196;6.454;2022-07-29T08:28:39;96333.69;;;21.76;50.14
73564;BME280;61834;50.196;6.454;2022-07-29T08:31:05;96342.06;;;21.76;49.81
73564;BME280;61834;50.196;6.454;2022-07-29T08:33:31;96343.63;;;21.77;50.19
73564;BME280;61834;50.196;6.454;2022-07-29T08:35:56;96336.81;;;21.78;49.94
73564;BME280;61834;50.196;6.454;2022-07-29T08:38:22;96343.19;;;21.79;49.70
73564;BME280;61834;50.196;6.454;2022-07-29T08:40:47;96343.97;;;21.79;49.77
73564;BME280;61834;50.196;6.454;2022-07-29T08:43:12;96338.38;;;21.79;49.79
73564;BME280;61834;50.196;6.454;2022-07-29T08:45:46;96346.75;;;21.79;49.77
73564;BME280;61834;50.196;6.454;2022-07-29T08:48:13;96337.13;;;21.80;49.81
73564;BME280;61834;50.196;6.454;2022-07-29T08:50:39;96341.63;;;21.78;49.82
73564;BME280;61834;50.196;6.454;2022-07-29T08:53:07;96333.59;;;21.80;49.88
73564;BME280;61834;50.196;6.454;2022-07-29T08:55:35;96343.50;;;21.81;50.14
73564;BME280;61834;50.196;6.454;2022-07-29T08:58:01;96342.25;;;21.82;49.63
73564;BME280;61834;50.196;6.454;2022-07-29T09:00:27;96345.81;;;21.82;49.84
73564;BME280;61834;50.196;6.454;2022-07-29T09:02:57;96338.25;;;21.83;49.82
73564;BME280;61834;50.196;6.454;2022-07-29T09:05:23;96351.41;;;21.82;49.89
73564;BME280;61834;50.196;6.454;2022-07-29T09:07:50;96345.81;;;21.82;49.68
73564;BME280;61834;50.196;6.454;2022-07-29T09:10:16;96340.56;;;21.84;50.01
73564;BME280;61834;50.196;6.454;2022-07-29T09:12:41;96343.81;;;21.83;49.69
73564;BME280;61834;50.196;6.454;2022-07-29T09:15:07;96329.88;;;21.83;49.89
73564;BME280;61834;50.196;6.454;2022-07-29T09:17:40;96327.84;;;21.83;49.85
73564;BME280;61834;50.196;6.454;2022-07-29T09:20:15;96340.56;;;21.84;50.14
73564;BME280;61834;50.196;6.454;2022-07-29T09:22:40;96331.44;;;21.84;49.77
73564;BME280;61834;50.196;6.454;2022-07-29T09:25:06;96335.78;;;21.85;50.10
73564;BME280;61834;50.196;6.454;2022-07-29T09:27:32;96342.91;;;21.86;49.63
73564;BME280;61834;50.196;6.454;2022-07-29T09:30:09;96340.91;;;21.86;50.14
73564;BME280;61834;50.196;6.454;2022-07-29T09:32:54;96338.41;;;21.88;50.12
73564;BME280;61834;50.196;6.454;2022-07-29T09:35:21;96347.56;;;21.89;49.79
73564;BME280;61834;50.196;6.454;2022-07-29T09:37:48;96339.66;;;21.87;50.08
73564;BME280;61834;50.196;6.454;2022-07-29T09:40:19;96336.09;;;21.87;49.71
73564;BME280;61834;50.196;6.454;2022-07-29T09:42:45;96345.22;;;21.87;49.74
73564;BME280;61834;50.196;6.454;2022-07-29T09:45:11;96336.88;;;21.87;49.78
73564;BME280;61834;50.196;6.454;2022-07-29T09:47:47;96339.97;;;21.89;49.70
73564;BME280;61834;50.196;6.454;2022-07-29T09:50:14;96339.97;;;21.89;49.89
73564;BME280;61834;50.196;6.454;2022-07-29T09:52:51;96337.94;;;21.90;49.70
73564;BME280;61834;50.196;6.454;2022-07-29T09:55:17;96340.31;;;21.91;49.89
73564;BME280;61834;50.196;6.454;2022-07-29T09:57:43;96335.50;;;21.92;49.92
73564;BME280;61834;50.196;6.454;2022-07-29T10:00:14;96338.28;;;21.92;49.98
73564;BME280;61834;50.196;6.454;2022-07-29T10:02:41;96331.47;;;21.93;49.69
73564;BME280;61834;50.196;6.454;2022-07-29T10:07:48;96334.28;;;21.93;49.84
73564;BME280;61834;50.196;6.454;2022-07-29T10:10:27;96337.81;;;21.93;49.84
73564;BME280;61834;50.196;6.454;2022-07-29T10:12:56;96332.56;;;21.95;49.92
73564;BME280;61834;50.196;6.454;2022-07-29T10:15:24;96335.81;;;21.94;49.96
73564;BME280;61834;50.196;6.454;2022-07-29T10:17:52;96331.78;;;21.95;49.96
73564;BME280;61834;50.196;6.454;2022-07-29T10:20:17;96335.34;;;21.95;49.93
73564;BME280;61834;50.196;6.454;2022-07-29T10:22:43;96329.00;;;21.95;49.93
73564;BME280;61834;50.196;6.454;2022-07-29T10:25:09;96320.19;;;21.96;49.65
73564;BME280;61834;50.196;6.454;2022-07-29T10:27:36;96329.78;;;21.95;50.06
73564;BME280;61834;50.196;6.454;2022-07-29T10:30:03;96331.78;;;21.95;49.57
73564;BME280;61834;50.196;6.454;2022-07-29T10:46:24;96335.53;;;22.01;50.01
73564;BME280;61834;50.196;6.454;2022-07-29T10:51:58;96332.75;;;22.01;49.76
73564;BME280;61834;50.196;6.454;2022-07-29T10:57:11;96324.72;;;22.03;49.75
73564;BME280;61834;50.196;6.454;2022-07-29T10:59:36;96326.25;;;22.04;49.58
73564;BME280;61834;50.196;6.454;2022-07-29T11:02:02;96329.81;;;22.04;49.60
73564;BME280;61834;50.196;6.454;2022-07-29T11:07:09;96327.03;;;22.04;49.78
73564;BME280;61834;50.196;6.454;2022-07-29T11:09:35;96324.38;;;22.01;49.70
73564;BME280;61834;50.196;6.454;2022-07-29T11:12:01;96325.91;;;22.02;49.89
73564;BME280;61834;50.196;6.454;2022-07-29T11:17:17;96322.38;;;22.01;49.75
73564;BME280;61834;50.196;6.454;2022-07-29T11:19:43;96333.06;;;22.03;49.99
73564;BME280;61834;50.196;6.454;2022-07-29T11:22:11;96333.38;;;22.05;49.99
73564;BME280;61834;50.196;6.454;2022-07-29T11:24:37;96323.00;;;22.05;49.48
73564;BME280;61834;50.196;6.454;2022-07-29T11:27:10;96316.03;;;22.10;49.82
73564;BME280;61834;50.196;6.454;2022-07-29T11:29:57;96325.66;;;22.09;49.56
73564;BME280;61834;50.196;6.454;2022-07-29T11:32:38;96319.00;;;22.06;49.54
73564;BME280;61834;50.196;6.454;2022-07-29T11:37:43;96312.94;;;22.08;49.72
73564;BME280;61834;50.196;6.454;2022-07-29T11:40:11;96318.53;;;22.08;49.43
73564;BME280;61834;50.196;6.454;2022-07-29T11:47:31;96306.44;;;22.11;49.83
73564;BME280;61834;50.196;6.454;2022-07-29T11:49:58;96323.66;;;22.09;49.68
73564;BME280;61834;50.196;6.454;2022-07-29T11:52:32;96326.09;;;22.07;49.60
73564;BME280;61834;50.196;6.454;2022-07-29T11:55:02;96327.34;;;22.06;49.85
73564;BME280;61834;50.196;6.454;2022-07-29T11:57:27;96325.31;;;22.07;49.91
73564;BME280;61834;50.196;6.454;2022-07-29T11:59:53;96326.56;;;22.06;49.80
73564;BME280;61834;50.196;6.454;2022-07-29T12:02:20;96319.88;;;22.03;49.91
73564;BME280;61834;50.196;6.454;2022-07-29T12:07:15;96319.44;;;22.05;49.60
73564;BME280;61834;50.196;6.454;2022-07-29T12:09:49;96314.63;;;22.05;49.92
73564;BME280;61834;50.196;6.454;2022-07-29T12:12:16;96311.06;;;22.05;49.97
73564;BME280;61834;50.196;6.454;2022-07-29T12:14:42;96316.63;;;22.05;49.98
73564;BME280;61834;50.196;6.454;2022-07-29T12:17:25;96312.63;;;22.06;50.09
73564;BME280;61834;50.196;6.454;2022-07-29T12:19:52;96315.41;;;22.06;49.82
73564;BME280;61834;50.196;6.454;2022-07-29T12:22:31;96300.22;;;22.07;50.03
73564;BME280;61834;50.196;6.454;2022-07-29T12:25:09;96311.38;;;22.07;50.16
73564;BME280;61834;50.196;6.454;2022-07-29T12:27:36;96306.91;;;22.09;49.67
73564;BME280;61834;50.196;6.454;2022-07-29T12:30:08;96304.13;;;22.09;49.91
73564;BME280;61834;50.196;6.454;2022-07-29T12:32:36;96310.03;;;22.11;49.85
73564;BME280;61834;50.196;6.454;2022-07-29T12:35:07;96312.50;;;22.09;49.90
73564;BME280;61834;50.196;6.454;2022-07-29T12:37:35;96323.66;;;22.09;50.06
73564;BME280;61834;50.196;6.454;2022-07-29T12:40:03;96322.53;;;22.07;50.18
73564;BME280;61834;50.196;6.454;2022-07-29T12:42:29;96316.63;;;22.05;49.99
73564;BME280;61834;50.196;6.454;2022-07-29T12:44:55;96320.22;;;22.05;50.35
73564;BME280;61834;50.196;6.454;2022-07-29T12:47:21;96318.66;;;22.04;50.24
73564;BME280;61834;50.196;6.454;2022-07-29T12:49:47;96317.88;;;22.04;49.85
73564;BME280;61834;50.196;6.454;2022-07-29T12:52:33;96314.31;;;22.03;50.10
73564;BME280;61834;50.196;6.454;2022-07-29T12:54:59;96319.13;;;22.03;50.18
73564;BME280;61834;50.196;6.454;2022-07-29T12:57:25;96322.69;;;22.03;49.84
73564;BME280;61834;50.196;6.454;2022-07-29T13:00:00;96323.94;;;22.02;50.33
73564;BME280;61834;50.196;6.454;2022-07-29T13:02:27;96328.72;;;22.02;50.01
73564;BME280;61834;50.196;6.454;2022-07-29T13:04:59;96326.72;;;22.02;49.92
73564;BME280;61834;50.196;6.454;2022-07-29T13:07:28;96329.97;;;22.01;50.21
73564;BME280;61834;50.196;6.454;2022-07-29T13:10:09;96328.72;;;22.02;50.44
73564;BME280;61834;50.196;6.454;2022-07-29T13:12:36;96320.81;;;22.00;50.41
73564;BME280;61834;50.196;6.454;2022-07-29T13:15:12;96332.75;;;22.01;50.38
73564;BME280;61834;50.196;6.454;2022-07-29T13:17:42;96331.50;;;22.02;50.24
73564;BME280;61834;50.196;6.454;2022-07-29T13:20:11;96338.50;;;22.06;49.81
73564;BME280;61834;50.196;6.454;2022-07-29T13:22:40;96342.25;;;22.12;49.72
73564;BME280;61834;50.196;6.454;2022-07-29T13:25:08;96339.91;;;22.11;50.07
73564;BME280;61834;50.196;6.454;2022-07-29T13:27:35;96338.06;;;22.17;49.59
73564;BME280;61834;50.196;6.454;2022-07-29T13:30:04;96338.38;;;22.19;50.05
73564;BME280;61834;50.196;6.454;2022-07-29T13:32:31;96326.75;;;22.11;50.00
73564;BME280;61834;50.196;6.454;2022-07-29T13:34:59;96333.22;;;22.08;50.14
73564;BME280;61834;50.196;6.454;2022-07-29T13:37:25;96344.84;;;22.07;50.09
73564;BME280;61834;50.196;6.454;2022-07-29T13:39:51;96343.31;;;22.06;50.39
73564;BME280;61834;50.196;6.454;2022-07-29T13:42:18;96342.06;;;22.07;50.16
73564;BME280;61834;50.196;6.454;2022-07-29T13:44:43;96347.31;;;22.05;49.94
73564;BME280;61834;50.196;6.454;2022-07-29T13:47:09;96340.97;;;22.04;50.10